createdAt,value
2024-05-09T00:02:33.267Z,11.52
2024-05-09T00:06:34.888Z,11.32
2024-05-09T00:10:40.654Z,11.46
2024-05-09T00:14:42.967Z,11.19
2024-05-09T00:18:44.747Z,11.53
2024-05-09T00:22:49.107Z,11.65
2024-05-09T00:26:50.759Z,11.59
2024-05-09T00:30:52.751Z,11.47
2024-05-09T00:34:54.389Z,11.42
2024-05-09T00:38:56.027Z,11.22
2024-05-09T00:42:57.703Z,11.16
2024-05-09T00:46:59.756Z,11.33
2024-05-09T00:51:02.474Z,11.07
2024-05-09T00:55:04.604Z,10.81
2024-05-09T00:59:06.682Z,9.91
2024-05-09T01:03:11.658Z,10.35
2024-05-09T01:07:15.094Z,10.85
2024-05-09T01:11:18.326Z,10.22
2024-05-09T01:15:20.150Z,9.96
2024-05-09T01:19:29.658Z,10.40
2024-05-09T01:23:31.500Z,10.23
2024-05-09T01:27:33.228Z,9.27
2024-05-09T01:31:34.928Z,10.21
2024-05-09T01:35:37.039Z,9.79
2024-05-09T01:39:38.870Z,10.12
2024-05-09T01:43:40.548Z,10.21
2024-05-09T01:47:42.454Z,10.16
2024-05-09T01:51:44.297Z,10.62
2024-05-09T01:55:46.258Z,10.43
2024-05-09T01:59:48.193Z,10.56
2024-05-09T02:03:50.142Z,10.82
2024-05-09T02:07:52.004Z,10.62
2024-05-09T02:11:54.030Z,10.67
2024-05-09T02:15:56.127Z,10.24
2024-05-09T02:19:57.836Z,10.25
2024-05-09T02:24:00.044Z,9.86
2024-05-09T02:28:01.792Z,10.23
2024-05-09T02:32:03.712Z,10.12
2024-05-09T02:36:05.918Z,9.11
2024-05-09T02:40:11.709Z,9.89
2024-05-09T02:44:16.211Z,9.00
2024-05-09T02:48:18.382Z,9.38
2024-05-09T02:52:20.187Z,9.59
2024-05-09T02:56:21.955Z,9.36
2024-05-09T03:00:29.817Z,9.13
2024-05-09T03:04:39.182Z,9.21
2024-05-09T03:08:44.775Z,8.95
2024-05-09T03:12:46.505Z,8.65
2024-05-09T03:16:48.549Z,8.84
2024-05-09T03:20:50.335Z,8.61
2024-05-09T03:24:52.090Z,8.58
2024-05-09T03:28:53.857Z,8.54
2024-05-09T03:32:55.663Z,8.18
2024-05-09T03:36:57.391Z,8.25
2024-05-09T03:40:59.019Z,7.73
2024-05-09T03:45:00.710Z,8.28
2024-05-09T03:49:02.420Z,8.39
2024-05-09T03:53:04.810Z,8.09
2024-05-09T03:57:09.087Z,8.18
2024-05-09T04:01:10.983Z,8.39
2024-05-09T04:05:12.959Z,8.52
2024-05-09T04:09:14.576Z,8.46
2024-05-09T04:13:16.157Z,8.61
2024-05-09T04:17:17.750Z,8.68
2024-05-09T04:21:19.369Z,8.69
2024-05-09T04:25:21.016Z,8.64
2024-05-09T04:29:22.690Z,8.43
2024-05-09T04:33:24.520Z,8.47
2024-05-09T04:37:26.428Z,8.49
2024-05-09T04:41:28.084Z,8.90
2024-05-09T04:45:30.042Z,8.85
2024-05-09T04:49:32.085Z,8.94
2024-05-09T04:53:33.799Z,9.21
2024-05-09T04:57:35.511Z,9.36
2024-05-09T05:01:37.174Z,9.67
2024-05-09T05:05:42.014Z,9.82
2024-05-09T05:09:43.690Z,9.78
2024-05-09T05:13:45.371Z,10.05
2024-05-09T05:17:47.249Z,10.16
2024-05-09T05:21:49.063Z,10.29
2024-05-09T05:25:55.299Z,10.27
2024-05-09T05:29:57.273Z,10.76
2024-05-09T05:33:59.042Z,10.83
2024-05-09T05:38:01.130Z,10.97
2024-05-09T05:42:03.160Z,11.00
2024-05-09T05:46:04.928Z,11.04
2024-05-09T05:50:17.603Z,11.26
2024-05-09T05:54:25.768Z,11.51
2024-05-09T05:58:27.371Z,11.46
2024-05-09T06:02:29.070Z,11.49
2024-05-09T06:06:30.682Z,11.40
2024-05-09T06:10:38.127Z,11.62
2024-05-09T06:14:44.547Z,11.68
2024-05-09T06:18:47.020Z,12.28
2024-05-09T06:22:48.784Z,12.45
2024-05-09T06:26:50.463Z,12.52
2024-05-09T06:30:52.107Z,12.72
2024-05-09T06:34:53.760Z,12.61
2024-05-09T06:38:55.425Z,12.85
2024-05-09T06:42:57.781Z,13.07
2024-05-09T06:47:00.135Z,13.07
2024-05-09T06:51:02.101Z,12.91
2024-05-09T06:55:04.147Z,13.44
2024-05-09T06:59:06.035Z,13.39
2024-05-09T07:03:13.846Z,13.80
2024-05-09T07:07:17.868Z,13.81
2024-05-09T07:11:19.769Z,14.16
2024-05-09T07:15:21.468Z,14.56
2024-05-09T07:19:23.261Z,14.43
2024-05-09T07:23:24.959Z,14.60
2024-05-09T07:27:27.955Z,14.97
2024-05-09T07:31:30.718Z,14.82
2024-05-09T07:35:32.721Z,15.17
2024-05-09T07:39:34.649Z,14.97
2024-05-09T07:43:36.208Z,15.23
2024-05-09T07:48:58.144Z,15.58
2024-05-09T07:53:25.383Z,15.86
2024-05-09T07:56:24.073Z,16.15
2024-05-09T08:00:31.097Z,16.21
2024-05-09T08:04:33.989Z,16.37
2024-05-09T08:08:35.641Z,16.16
2024-05-09T08:12:37.523Z,16.36
2024-05-09T08:16:39.165Z,16.84
2024-05-09T08:20:42.004Z,16.28
2024-05-09T08:24:46.849Z,17.11
2024-05-09T08:28:48.984Z,17.30
2024-05-09T08:32:50.967Z,17.49
2024-05-09T08:36:52.756Z,17.75
2024-05-09T08:40:54.433Z,17.31
2024-05-09T08:44:56.583Z,16.61
2024-05-09T08:48:59.689Z,17.71
2024-05-09T08:53:01.687Z,17.77
2024-05-09T08:57:04.760Z,18.04
2024-05-09T09:01:07.542Z,17.37
2024-05-09T09:05:11.410Z,18.16
2024-05-09T09:09:14.179Z,17.64
2024-05-09T09:13:16.122Z,17.40
2024-05-09T09:17:17.792Z,17.79
2024-05-09T09:21:19.450Z,18.09
2024-05-09T09:25:24.529Z,18.32
2024-05-09T09:29:26.728Z,18.80
2024-05-09T09:33:31.339Z,19.31
2024-05-09T09:37:34.973Z,19.41
2024-05-09T09:41:38.077Z,19.97
2024-05-09T09:45:41.314Z,19.25
2024-05-09T09:49:43.590Z,19.46
2024-05-09T09:53:47.361Z,18.99
2024-05-09T09:57:49.561Z,18.94
2024-05-09T10:01:51.480Z,19.67
2024-05-09T10:05:54.354Z,20.55
2024-05-09T10:09:57.542Z,20.15
2024-05-09T10:13:59.176Z,20.63
2024-05-09T10:18:07.332Z,20.26
2024-05-09T10:22:09.531Z,20.27
2024-05-09T10:26:11.304Z,20.77
2024-05-09T10:30:29.741Z,20.80
2024-05-09T10:34:37.472Z,21.84
2024-05-09T10:38:41.252Z,22.42
2024-05-09T10:42:43.515Z,22.08
2024-05-09T10:46:46.775Z,22.60
2024-05-09T10:50:48.421Z,21.95
2024-05-09T10:54:54.256Z,22.08
2024-05-09T10:58:55.967Z,21.94
2024-05-09T11:02:57.703Z,21.73
2024-05-09T11:07:05.542Z,22.63
2024-05-09T11:11:08.970Z,21.47
2024-05-09T11:15:11.390Z,23.07
2024-05-09T11:19:14.306Z,20.78
2024-05-09T11:23:16.760Z,21.98
2024-05-09T11:27:21.499Z,22.64
2024-05-09T11:31:23.543Z,23.17
2024-05-09T11:35:28.660Z,22.33
2024-05-09T11:39:30.659Z,22.84
2024-05-09T11:43:33.299Z,23.28
2024-05-09T11:47:35.554Z,22.35
2024-05-09T11:51:37.257Z,23.33
2024-05-09T11:55:38.922Z,21.58
2024-05-09T11:59:40.982Z,22.06
2024-05-09T12:03:42.719Z,21.84
2024-05-09T12:07:44.559Z,23.45
2024-05-09T12:11:46.255Z,23.20
2024-05-09T12:15:48.007Z,24.35
2024-05-09T12:19:49.666Z,24.40
2024-05-09T12:23:51.468Z,25.21
2024-05-09T12:27:53.224Z,24.82
2024-05-09T12:31:54.976Z,24.89
2024-05-09T12:35:56.874Z,24.67
2024-05-09T12:40:01.161Z,24.80
2024-05-09T12:44:02.794Z,24.38
2024-05-09T12:48:07.443Z,24.82
2024-05-09T12:52:09.909Z,23.76
2024-05-09T12:56:12.032Z,24.92
2024-05-09T13:00:23.411Z,25.02
2024-05-09T13:04:29.940Z,24.69
2024-05-09T13:08:35.359Z,25.71
2024-05-09T13:12:38.445Z,25.84
2024-05-09T13:16:42.542Z,25.24
2024-05-09T13:20:45.504Z,25.93
2024-05-09T13:24:47.253Z,24.40
2024-05-09T13:28:48.962Z,24.71
2024-05-09T13:32:50.739Z,25.75
2024-05-09T13:36:52.819Z,26.34
2024-05-09T13:40:54.533Z,25.78
2024-05-09T13:44:56.410Z,25.77
2024-05-09T13:48:58.361Z,25.83
2024-05-09T13:53:00.263Z,25.88
2024-05-09T13:57:02.202Z,25.38
2024-05-09T14:01:04.129Z,26.24
2024-05-09T14:05:06.300Z,25.78
2024-05-09T14:09:09.754Z,27.10
2024-05-09T14:13:11.681Z,27.69
2024-05-09T14:17:13.533Z,25.96
2024-05-09T14:21:15.261Z,26.51
2024-05-09T14:25:17.203Z,27.07
2024-05-09T14:29:19.016Z,26.36
2024-05-09T14:33:26.322Z,26.35
2024-05-09T14:37:28.339Z,27.40
2024-05-09T14:41:29.998Z,26.39
2024-05-09T14:45:32.536Z,25.64
2024-05-09T14:49:35.287Z,25.80
2024-05-09T14:53:36.978Z,26.78
2024-05-09T14:57:38.817Z,26.94
2024-05-09T15:01:40.676Z,24.97
2024-05-09T15:05:42.396Z,25.23
2024-05-09T15:09:44.176Z,24.99
2024-05-09T15:13:45.869Z,25.71
2024-05-09T15:17:47.861Z,25.77
2024-05-09T15:21:50.128Z,26.29
2024-05-09T15:25:51.964Z,25.13
2024-05-09T15:29:53.655Z,23.97
2024-05-09T15:33:55.481Z,23.98
2024-05-09T15:37:57.232Z,24.00
2024-05-09T15:41:58.966Z,24.28
2024-05-09T15:46:00.831Z,24.47
2024-05-09T15:50:02.810Z,23.87
2024-05-09T15:54:04.632Z,24.50
2024-05-09T15:58:08.223Z,22.94
2024-05-09T16:02:11.568Z,23.38
2024-05-09T16:06:13.786Z,23.43
2024-05-09T16:10:22.711Z,22.35
2024-05-09T16:14:27.448Z,22.38
2024-05-09T16:18:29.127Z,23.44
2024-05-09T16:22:31.217Z,22.70
2024-05-09T16:26:33.094Z,22.56
2024-05-09T16:30:37.343Z,21.61
2024-05-09T16:34:39.078Z,22.41
2024-05-09T16:38:42.966Z,22.77
2024-05-09T16:42:45.934Z,22.01
2024-05-09T16:46:47.714Z,22.81
2024-05-09T16:50:49.391Z,21.98
2024-05-09T16:54:52.254Z,22.01
2024-05-09T16:58:53.917Z,21.99
2024-05-09T17:02:55.577Z,21.31
2024-05-09T17:06:57.362Z,21.74
2024-05-09T17:10:59.202Z,21.88
2024-05-09T17:15:01.072Z,20.87
2024-05-09T17:19:02.888Z,20.15
2024-05-09T17:23:06.232Z,20.13
2024-05-09T17:27:08.722Z,19.72
2024-05-09T17:31:11.029Z,20.03
2024-05-09T17:35:12.899Z,19.90
2024-05-09T17:39:14.765Z,19.75
2024-05-09T17:43:16.484Z,20.46
2024-05-09T17:47:18.412Z,19.76
2024-05-09T17:51:20.290Z,19.80
2024-05-09T17:55:22.142Z,19.65
2024-05-09T17:59:23.903Z,19.14
2024-05-09T18:03:25.946Z,19.44
2024-05-09T18:07:27.782Z,19.31
2024-05-09T18:11:29.568Z,19.75
2024-05-09T18:15:31.226Z,18.94
2024-05-09T18:19:33.114Z,18.95
2024-05-09T18:23:34.937Z,19.36
2024-05-09T18:27:36.648Z,19.19
2024-05-09T18:31:38.374Z,19.24
2024-05-09T18:35:43.203Z,19.29
2024-05-09T18:39:44.981Z,19.03
2024-05-09T18:43:50.367Z,18.91
2024-05-09T18:47:52.931Z,18.90
2024-05-09T18:51:54.823Z,18.71
2024-05-09T18:55:56.667Z,18.43
2024-05-09T18:59:58.306Z,18.57
2024-05-09T19:04:00.272Z,18.41
2024-05-09T19:08:02.220Z,18.50
2024-05-09T19:12:06.482Z,18.22
2024-05-09T19:16:08.411Z,18.28
2024-05-09T19:20:20.519Z,18.04
2024-05-09T19:24:29.854Z,18.13
2024-05-09T19:28:31.956Z,17.95
2024-05-09T19:32:33.876Z,18.07
2024-05-09T19:36:35.737Z,17.92
2024-05-09T19:40:37.497Z,17.62
2024-05-09T19:44:40.308Z,17.23
2024-05-09T19:48:42.352Z,17.60
2024-05-09T19:52:44.223Z,17.46
2024-05-09T19:56:45.893Z,17.25
2024-05-09T20:00:47.929Z,17.21
2024-05-09T20:04:50.659Z,17.18
2024-05-09T20:08:57.083Z,16.90
2024-05-09T20:12:58.954Z,17.16
2024-05-09T20:17:01.351Z,16.78
2024-05-09T20:21:03.362Z,16.77
2024-05-09T20:25:05.698Z,16.23
2024-05-09T20:29:07.383Z,16.61
2024-05-09T20:33:10.038Z,16.27
2024-05-09T20:37:12.802Z,16.48
2024-05-09T20:41:14.549Z,16.34
2024-05-09T20:45:16.222Z,15.88
2024-05-09T20:49:18.329Z,16.08
2024-05-09T20:53:20.115Z,16.20
2024-05-09T20:57:21.809Z,15.89
2024-05-09T21:01:23.927Z,15.79
2024-05-09T21:05:25.799Z,15.87
2024-05-09T21:09:28.012Z,16.11
2024-05-09T21:13:29.726Z,15.64
2024-05-09T21:17:31.521Z,14.90
2024-05-09T21:21:39.547Z,15.56
2024-05-09T21:25:41.194Z,15.63
2024-05-09T21:29:43.003Z,15.48
2024-05-09T21:33:44.833Z,15.31
2024-05-09T21:37:47.087Z,15.26
2024-05-09T21:41:48.761Z,14.97
2024-05-09T21:45:50.448Z,14.94
2024-05-09T21:49:52.180Z,15.06
2024-05-09T21:53:53.821Z,14.85
2024-05-09T21:57:56.631Z,14.83
2024-05-09T22:01:58.683Z,14.69
2024-05-09T22:06:00.658Z,14.55
2024-05-09T22:10:05.092Z,14.42
2024-05-09T22:14:09.806Z,14.33
2024-05-09T22:18:12.075Z,14.22
2024-05-09T22:22:13.866Z,14.08
2024-05-09T22:26:15.501Z,13.85
2024-05-09T22:30:23.829Z,14.02
2024-05-09T22:34:29.527Z,13.96
2024-05-09T22:38:33.800Z,13.91
2024-05-09T22:42:35.436Z,13.75
2024-05-09T22:46:37.243Z,13.62
2024-05-09T22:50:40.183Z,13.57
2024-05-09T22:54:42.371Z,13.39
2024-05-09T22:58:45.411Z,13.38
2024-05-09T23:02:47.134Z,13.29
2024-05-09T23:06:51.593Z,13.19
2024-05-09T23:10:53.624Z,13.09
2024-05-09T23:14:55.566Z,13.12
2024-05-09T23:18:57.371Z,13.06
2024-05-09T23:22:59.124Z,13.03
2024-05-09T23:27:01.192Z,12.87
2024-05-09T23:31:02.916Z,12.84
2024-05-09T23:35:05.113Z,12.44
2024-05-09T23:39:06.775Z,12.77
2024-05-09T23:43:10.700Z,12.72
2024-05-09T23:47:12.865Z,12.71
2024-05-09T23:51:15.039Z,12.78
2024-05-09T23:55:16.824Z,12.75
2024-05-09T23:59:18.688Z,12.79
